sensor_id;sensor_type;location;lat;lon;timestamp;temperature;humidity
65046;DHT22;54657;52.022;5.534;2022-12-29T00:01:35;12.00;91.60
65046;DHT22;54657;52.022;5.534;2022-12-29T00:04:01;12.00;91.40
65046;DHT22;54657;52.022;5.534;2022-12-29T00:06:27;12.10;91.40
65046;DHT22;54657;52.022;5.534;2022-12-29T00:08:53;12.00;91.40
65046;DHT22;54657;52.022;5.534;2022-12-29T00:11:20;12.10;91.40
65046;DHT22;54657;52.022;5.534;2022-12-29T00:13:47;12.00;91.30
65046;DHT22;54657;52.022;5.534;2022-12-29T00:16:31;12.10;91.40
65046;DHT22;54657;52.022;5.534;2022-12-29T00:18:57;12.10;91.40
65046;DHT22;54657;52.022;5.534;2022-12-29T00:21:24;12.10;91.30
65046;DHT22;54657;52.022;5.534;2022-12-29T00:24:16;12.10;91.30
65046;DHT22;54657;52.022;5.534;2022-12-29T00:29:47;12.10;91.00
65046;DHT22;54657;52.022;5.534;2022-12-29T00:32:32;12.10;91.30
65046;DHT22;54657;52.022;5.534;2022-12-29T00:35:35;12.10;91.20
65046;DHT22;54657;52.022;5.534;2022-12-29T00:38:05;12.10;91.10
65046;DHT22;54657;52.022;5.534;2022-12-29T00:40:50;12.10;91.00
65046;DHT22;54657;52.022;5.534;2022-12-29T00:43:34;12.10;91.20
65046;DHT22;54657;52.022;5.534;2022-12-29T00:46:18;12.10;91.20
65046;DHT22;54657;52.022;5.534;2022-12-29T00:48:43;12.10;91.10
65046;DHT22;54657;52.022;5.534;2022-12-29T00:51:27;12.10;91.30
65046;DHT22;54657;52.022;5.534;2022-12-29T00:53:53;12.10;91.00
65046;DHT22;54657;52.022;5.534;2022-12-29T00:56:18;12.20;90.80
65046;DHT22;54657;52.022;5.534;2022-12-29T00:58:44;12.20;90.70
65046;DHT22;54657;52.022;5.534;2022-12-29T01:01:10;12.20;90.70
65046;DHT22;54657;52.022;5.534;2022-12-29T01:03:37;12.20;90.50
65046;DHT22;54657;52.022;5.534;2022-12-29T01:06:06;12.20;90.60
65046;DHT22;54657;52.022;5.534;2022-12-29T01:08:32;12.20;90.60
65046;DHT22;54657;52.022;5.534;2022-12-29T01:13:27;12.20;90.70
65046;DHT22;54657;52.022;5.534;2022-12-29T01:15:54;12.20;90.70
65046;DHT22;54657;52.022;5.534;2022-12-29T01:18:20;12.20;90.60
65046;DHT22;54657;52.022;5.534;2022-12-29T01:20:46;12.20;90.70
65046;DHT22;54657;52.022;5.534;2022-12-29T01:23:12;12.20;90.80
65046;DHT22;54657;52.022;5.534;2022-12-29T01:25:37;12.10;90.80
65046;DHT22;54657;52.022;5.534;2022-12-29T01:28:03;12.10;90.90
65046;DHT22;54657;52.022;5.534;2022-12-29T01:30:29;12.10;91.10
65046;DHT22;54657;52.022;5.534;2022-12-29T01:32:54;12.10;91.10
65046;DHT22;54657;52.022;5.534;2022-12-29T01:35:20;12.00;91.30
65046;DHT22;54657;52.022;5.534;2022-12-29T01:37:45;12.00;91.40
65046;DHT22;54657;52.022;5.534;2022-12-29T01:40:11;12.00;91.40
65046;DHT22;54657;52.022;5.534;2022-12-29T01:42:37;12.00;91.50
65046;DHT22;54657;52.022;5.534;2022-12-29T01:45:13;12.00;91.80
65046;DHT22;54657;52.022;5.534;2022-12-29T01:47:54;12.00;91.40
65046;DHT22;54657;52.022;5.534;2022-12-29T01:50:39;11.90;91.50
65046;DHT22;54657;52.022;5.534;2022-12-29T01:53:07;11.90;91.70
65046;DHT22;54657;52.022;5.534;2022-12-29T01:55:43;11.90;91.80
65046;DHT22;54657;52.022;5.534;2022-12-29T01:58:11;11.80;91.80
65046;DHT22;54657;52.022;5.534;2022-12-29T02:00:38;11.80;91.90
65046;DHT22;54657;52.022;5.534;2022-12-29T02:03:04;11.90;92.00
65046;DHT22;54657;52.022;5.534;2022-12-29T02:08:01;11.80;92.20
65046;DHT22;54657;52.022;5.534;2022-12-29T02:10:29;11.80;92.20
65046;DHT22;54657;52.022;5.534;2022-12-29T02:12:56;11.80;92.20
65046;DHT22;54657;52.022;5.534;2022-12-29T02:31:30;11.80;91.70
65046;DHT22;54657;52.022;5.534;2022-12-29T02:42:24;11.80;91.00
65046;DHT22;54657;52.022;5.534;2022-12-29T02:45:03;11.80;90.90
65046;DHT22;54657;52.022;5.534;2022-12-29T02:50:31;11.90;91.00
65046;DHT22;54657;52.022;5.534;2022-12-29T02:53:16;11.80;91.00
65046;DHT22;54657;52.022;5.534;2022-12-29T02:55:49;11.80;91.00
65046;DHT22;54657;52.022;5.534;2022-12-29T02:58:21;11.80;91.40
65046;DHT22;54657;52.022;5.534;2022-12-29T03:03:29;11.80;91.40
65046;DHT22;54657;52.022;5.534;2022-12-29T03:09:11;11.80;91.50
65046;DHT22;54657;52.022;5.534;2022-12-29T03:11:41;11.90;91.30
65046;DHT22;54657;52.022;5.534;2022-12-29T03:14:36;11.90;91.50
65046;DHT22;54657;52.022;5.534;2022-12-29T03:18:09;11.80;91.50
65046;DHT22;54657;52.022;5.534;2022-12-29T03:20:11;11.80;91.50
65046;DHT22;54657;52.022;5.534;2022-12-29T03:22:42;11.80;91.40
65046;DHT22;54657;52.022;5.534;2022-12-29T03:25:19;11.80;91.30
65046;DHT22;54657;52.022;5.534;2022-12-29T03:28:17;11.80;91.20
65046;DHT22;54657;52.022;5.534;2022-12-29T03:30:45;11.80;91.00
65046;DHT22;54657;52.022;5.534;2022-12-29T03:33:15;11.80;91.30
65046;DHT22;54657;52.022;5.534;2022-12-29T03:35:43;11.80;91.10
65046;DHT22;54657;52.022;5.534;2022-12-29T03:38:19;11.70;91.10
65046;DHT22;54657;52.022;5.534;2022-12-29T03:40:57;11.70;91.10
65046;DHT22;54657;52.022;5.534;2022-12-29T03:43:23;11.70;90.80
65046;DHT22;54657;52.022;5.534;2022-12-29T03:45:50;11.70;91.10
65046;DHT22;54657;52.022;5.534;2022-12-29T03:48:15;11.70;91.00
65046;DHT22;54657;52.022;5.534;2022-12-29T03:50:41;11.60;91.10
65046;DHT22;54657;52.022;5.534;2022-12-29T03:53:06;11.60;91.00
65046;DHT22;54657;52.022;5.534;2022-12-29T03:55:32;11.60;91.10
65046;DHT22;54657;52.022;5.534;2022-12-29T03:57:58;11.50;91.10
65046;DHT22;54657;52.022;5.534;2022-12-29T04:00:23;11.50;91.10
65046;DHT22;54657;52.022;5.534;2022-12-29T04:02:49;11.50;91.20
65046;DHT22;54657;52.022;5.534;2022-12-29T04:05:15;11.50;91.20
65046;DHT22;54657;52.022;5.534;2022-12-29T04:07:40;11.50;91.30
65046;DHT22;54657;52.022;5.534;2022-12-29T04:10:06;11.50;91.30
65046;DHT22;54657;52.022;5.534;2022-12-29T04:12:31;11.50;91.30
65046;DHT22;54657;52.022;5.534;2022-12-29T04:14:57;11.50;91.30
65046;DHT22;54657;52.022;5.534;2022-12-29T04:17:22;11.50;91.20
65046;DHT22;54657;52.022;5.534;2022-12-29T04:19:48;11.60;91.00
65046;DHT22;54657;52.022;5.534;2022-12-29T04:22:14;11.50;90.80
65046;DHT22;54657;52.022;5.534;2022-12-29T04:24:39;11.60;90.90
65046;DHT22;54657;52.022;5.534;2022-12-29T04:27:05;11.50;91.00
65046;DHT22;54657;52.022;5.534;2022-12-29T04:29:30;11.60;90.80
65046;DHT22;54657;52.022;5.534;2022-12-29T04:31:56;11.60;90.70
65046;DHT22;54657;52.022;5.534;2022-12-29T04:34:21;11.60;90.70
65046;DHT22;54657;52.022;5.534;2022-12-29T04:36:47;11.60;90.40
65046;DHT22;54657;52.022;5.534;2022-12-29T04:39:13;11.60;90.30
65046;DHT22;54657;52.022;5.534;2022-12-29T04:41:38;11.60;90.30
65046;DHT22;54657;52.022;5.534;2022-12-29T04:44:04;11.60;90.20
65046;DHT22;54657;52.022;5.534;2022-12-29T04:46:30;11.60;90.00
65046;DHT22;54657;52.022;5.534;2022-12-29T04:48:55;11.60;90.00
65046;DHT22;54657;52.022;5.534;2022-12-29T04:51:21;11.60;89.90
65046;DHT22;54657;52.022;5.534;2022-12-29T04:53:46;11.60;89.90
65046;DHT22;54657;52.022;5.534;2022-12-29T04:56:12;11.60;89.80
65046;DHT22;54657;52.022;5.534;2022-12-29T04:58:38;11.60;89.80
65046;DHT22;54657;52.022;5.534;2022-12-29T05:01:03;11.60;89.80
65046;DHT22;54657;52.022;5.534;2022-12-29T05:03:29;11.60;89.60
65046;DHT22;54657;52.022;5.534;2022-12-29T05:05:55;11.60;89.40
65046;DHT22;54657;52.022;5.534;2022-12-29T05:08:22;11.60;89.60
65046;DHT22;54657;52.022;5.534;2022-12-29T05:10:50;11.50;89.40
65046;DHT22;54657;52.022;5.534;2022-12-29T05:13:17;11.50;88.90
65046;DHT22;54657;52.022;5.534;2022-12-29T05:15:49;11.50;89.50
65046;DHT22;54657;52.022;5.534;2022-12-29T05:18:15;11.50;89.00
65046;DHT22;54657;52.022;5.534;2022-12-29T05:20:40;11.50;89.00
65046;DHT22;54657;52.022;5.534;2022-12-29T05:23:06;11.40;88.90
65046;DHT22;54657;52.022;5.534;2022-12-29T05:25:31;11.40;89.40
65046;DHT22;54657;52.022;5.534;2022-12-29T05:27:57;11.40;89.10
65046;DHT22;54657;52.022;5.534;2022-12-29T05:30:23;11.40;89.30
65046;DHT22;54657;52.022;5.534;2022-12-29T05:32:48;11.40;89.00
65046;DHT22;54657;52.022;5.534;2022-12-29T05:35:14;11.30;89.10
65046;DHT22;54657;52.022;5.534;2022-12-29T05:37:39;11.30;89.00
65046;DHT22;54657;52.022;5.534;2022-12-29T05:40:05;11.30;89.10
65046;DHT22;54657;52.022;5.534;2022-12-29T05:42:31;11.30;88.80
65046;DHT22;54657;52.022;5.534;2022-12-29T05:44:57;11.30;88.80
65046;DHT22;54657;52.022;5.534;2022-12-29T05:47:22;11.30;88.90
65046;DHT22;54657;52.022;5.534;2022-12-29T05:49:48;11.20;88.60
65046;DHT22;54657;52.022;5.534;2022-12-29T05:52:13;11.20;88.50
65046;DHT22;54657;52.022;5.534;2022-12-29T05:54:39;11.20;88.90
65046;DHT22;54657;52.022;5.534;2022-12-29T05:57:05;11.20;88.60
65046;DHT22;54657;52.022;5.534;2022-12-29T05:59:31;11.20;88.20
65046;DHT22;54657;52.022;5.534;2022-12-29T06:01:56;11.30;88.00
65046;DHT22;54657;52.022;5.534;2022-12-29T06:04:22;11.20;88.10
65046;DHT22;54657;52.022;5.534;2022-12-29T06:06:47;11.20;87.70
65046;DHT22;54657;52.022;5.534;2022-12-29T06:09:13;11.20;87.10
65046;DHT22;54657;52.022;5.534;2022-12-29T06:11:38;11.30;87.10
65046;DHT22;54657;52.022;5.534;2022-12-29T06:14:04;11.30;87.50
65046;DHT22;54657;52.022;5.534;2022-12-29T06:16:29;11.30;87.10
65046;DHT22;54657;52.022;5.534;2022-12-29T06:18:55;11.30;87.60
65046;DHT22;54657;52.022;5.534;2022-12-29T06:21:21;11.30;87.60
65046;DHT22;54657;52.022;5.534;2022-12-29T06:23:46;11.20;86.90
65046;DHT22;54657;52.022;5.534;2022-12-29T06:26:12;11.30;87.40
65046;DHT22;54657;52.022;5.534;2022-12-29T06:28:37;11.30;87.10
65046;DHT22;54657;52.022;5.534;2022-12-29T06:31:03;11.30;87.10
65046;DHT22;54657;52.022;5.534;2022-12-29T06:33:29;11.30;87.10
65046;DHT22;54657;52.022;5.534;2022-12-29T06:35:54;11.20;87.10
65046;DHT22;54657;52.022;5.534;2022-12-29T06:38:20;11.30;87.20
65046;DHT22;54657;52.022;5.534;2022-12-29T06:40:45;11.20;87.10
65046;DHT22;54657;52.022;5.534;2022-12-29T06:43:11;11.20;87.10
65046;DHT22;54657;52.022;5.534;2022-12-29T06:45:40;11.20;87.40
65046;DHT22;54657;52.022;5.534;2022-12-29T06:48:06;11.20;87.10
65046;DHT22;54657;52.022;5.534;2022-12-29T06:50:32;11.20;87.30
65046;DHT22;54657;52.022;5.534;2022-12-29T06:52:58;11.10;87.50
65046;DHT22;54657;52.022;5.534;2022-12-29T06:55:23;11.20;87.60
65046;DHT22;54657;52.022;5.534;2022-12-29T06:57:49;11.10;86.30
65046;DHT22;54657;52.022;5.534;2022-12-29T07:00:15;11.10;85.90
65046;DHT22;54657;52.022;5.534;2022-12-29T07:02:41;11.10;86.40
65046;DHT22;54657;52.022;5.534;2022-12-29T07:05:06;10.90;86.40
65046;DHT22;54657;52.022;5.534;2022-12-29T07:07:34;10.90;86.80
65046;DHT22;54657;52.022;5.534;2022-12-29T07:09:59;10.90;87.70
65046;DHT22;54657;52.022;5.534;2022-12-29T07:12:25;10.80;88.10
65046;DHT22;54657;52.022;5.534;2022-12-29T07:14:50;10.70;88.30
65046;DHT22;54657;52.022;5.534;2022-12-29T07:17:16;10.70;88.80
65046;DHT22;54657;52.022;5.534;2022-12-29T07:19:41;10.60;89.10
65046;DHT22;54657;52.022;5.534;2022-12-29T07:22:08;10.60;89.20
65046;DHT22;54657;52.022;5.534;2022-12-29T07:24:34;10.60;89.50
65046;DHT22;54657;52.022;5.534;2022-12-29T07:27:00;10.60;89.70
65046;DHT22;54657;52.022;5.534;2022-12-29T07:29:25;10.60;89.90
65046;DHT22;54657;52.022;5.534;2022-12-29T07:31:51;10.60;90.00
65046;DHT22;54657;52.022;5.534;2022-12-29T07:34:17;10.50;90.20
65046;DHT22;54657;52.022;5.534;2022-12-29T07:36:42;10.40;90.30
65046;DHT22;54657;52.022;5.534;2022-12-29T07:39:08;10.40;90.50
65046;DHT22;54657;52.022;5.534;2022-12-29T07:41:33;10.30;90.50
65046;DHT22;54657;52.022;5.534;2022-12-29T07:44:00;10.30;90.50
65046;DHT22;54657;52.022;5.534;2022-12-29T07:46:25;10.30;90.50
65046;DHT22;54657;52.022;5.534;2022-12-29T07:48:51;10.30;90.50
65046;DHT22;54657;52.022;5.534;2022-12-29T07:51:16;10.30;90.40
65046;DHT22;54657;52.022;5.534;2022-12-29T07:53:42;10.20;90.40
65046;DHT22;54657;52.022;5.534;2022-12-29T07:56:07;10.30;90.50
65046;DHT22;54657;52.022;5.534;2022-12-29T07:58:33;10.30;90.50
65046;DHT22;54657;52.022;5.534;2022-12-29T08:00:58;10.20;90.40
65046;DHT22;54657;52.022;5.534;2022-12-29T08:03:24;10.20;90.30
65046;DHT22;54657;52.022;5.534;2022-12-29T08:05:51;10.30;90.50
65046;DHT22;54657;52.022;5.534;2022-12-29T08:08:16;10.30;90.20
65046;DHT22;54657;52.022;5.534;2022-12-29T08:10:42;10.30;90.20
65046;DHT22;54657;52.022;5.534;2022-12-29T08:13:08;10.40;90.20
65046;DHT22;54657;52.022;5.534;2022-12-29T08:15:34;10.40;90.00
65046;DHT22;54657;52.022;5.534;2022-12-29T08:18:00;10.40;89.90
65046;DHT22;54657;52.022;5.534;2022-12-29T08:20:26;10.40;89.50
65046;DHT22;54657;52.022;5.534;2022-12-29T08:22:51;10.40;89.20
65046;DHT22;54657;52.022;5.534;2022-12-29T08:25:17;10.40;89.10
65046;DHT22;54657;52.022;5.534;2022-12-29T08:27:42;10.50;88.60
65046;DHT22;54657;52.022;5.534;2022-12-29T08:30:08;10.50;88.40
65046;DHT22;54657;52.022;5.534;2022-12-29T08:32:34;10.50;87.90
65046;DHT22;54657;52.022;5.534;2022-12-29T08:35:00;10.50;87.80
65046;DHT22;54657;52.022;5.534;2022-12-29T08:37:25;10.60;87.60
65046;DHT22;54657;52.022;5.534;2022-12-29T08:39:51;10.60;87.10
65046;DHT22;54657;52.022;5.534;2022-12-29T08:42:17;10.70;86.70
65046;DHT22;54657;52.022;5.534;2022-12-29T08:44:42;10.70;86.80
65046;DHT22;54657;52.022;5.534;2022-12-29T08:47:09;10.70;86.40
65046;DHT22;54657;52.022;5.534;2022-12-29T08:49:35;10.70;86.40
65046;DHT22;54657;52.022;5.534;2022-12-29T08:52:01;10.70;86.70
65046;DHT22;54657;52.022;5.534;2022-12-29T08:54:27;10.70;86.50
65046;DHT22;54657;52.022;5.534;2022-12-29T08:56:52;10.70;86.10
65046;DHT22;54657;52.022;5.534;2022-12-29T08:59:19;10.80;86.70
65046;DHT22;54657;52.022;5.534;2022-12-29T09:01:44;10.80;86.20
65046;DHT22;54657;52.022;5.534;2022-12-29T09:04:10;10.80;86.90
65046;DHT22;54657;52.022;5.534;2022-12-29T09:06:35;10.80;87.00
65046;DHT22;54657;52.022;5.534;2022-12-29T09:09:01;10.70;86.60
65046;DHT22;54657;52.022;5.534;2022-12-29T09:11:26;10.70;87.30
65046;DHT22;54657;52.022;5.534;2022-12-29T09:13:53;10.70;87.40
65046;DHT22;54657;52.022;5.534;2022-12-29T09:16:20;10.70;87.10
65046;DHT22;54657;52.022;5.534;2022-12-29T09:18:46;10.70;87.80
65046;DHT22;54657;52.022;5.534;2022-12-29T09:21:12;10.70;87.30
65046;DHT22;54657;52.022;5.534;2022-12-29T09:23:39;10.70;87.50
65046;DHT22;54657;52.022;5.534;2022-12-29T09:26:05;10.80;87.50
65046;DHT22;54657;52.022;5.534;2022-12-29T09:28:30;10.80;86.90
65046;DHT22;54657;52.022;5.534;2022-12-29T09:30:57;10.80;86.90
65046;DHT22;54657;52.022;5.534;2022-12-29T09:33:22;10.80;86.80
65046;DHT22;54657;52.022;5.534;2022-12-29T09:36:06;10.80;86.90
65046;DHT22;54657;52.022;5.534;2022-12-29T09:38:32;10.90;86.50
65046;DHT22;54657;52.022;5.534;2022-12-29T09:44:41;10.80;87.60
65046;DHT22;54657;52.022;5.534;2022-12-29T09:47:13;10.80;87.20
65046;DHT22;54657;52.022;5.534;2022-12-29T09:49:54;10.70;88.30
65046;DHT22;54657;52.022;5.534;2022-12-29T09:52:43;10.70;88.30
65046;DHT22;54657;52.022;5.534;2022-12-29T09:55:16;10.70;88.90
65046;DHT22;54657;52.022;5.534;2022-12-29T09:58:01;10.60;89.30
65046;DHT22;54657;52.022;5.534;2022-12-29T10:00:47;10.50;89.80
65046;DHT22;54657;52.022;5.534;2022-12-29T10:03:19;10.50;89.80
65046;DHT22;54657;52.022;5.534;2022-12-29T10:05:56;10.50;90.20
65046;DHT22;54657;52.022;5.534;2022-12-29T10:10:57;10.40;90.50
65046;DHT22;54657;52.022;5.534;2022-12-29T10:13:34;10.30;90.60
65046;DHT22;54657;52.022;5.534;2022-12-29T10:16:17;10.30;90.60
65046;DHT22;54657;52.022;5.534;2022-12-29T10:24:47;10.30;91.40
65046;DHT22;54657;52.022;5.534;2022-12-29T10:27:14;10.30;90.80
65046;DHT22;54657;52.022;5.534;2022-12-29T10:29:52;10.30;90.80
65046;DHT22;54657;52.022;5.534;2022-12-29T10:32:35;10.30;91.00
65046;DHT22;54657;52.022;5.534;2022-12-29T10:35:14;10.30;91.20
65046;DHT22;54657;52.022;5.534;2022-12-29T10:40:43;10.30;91.00
65046;DHT22;54657;52.022;5.534;2022-12-29T10:45:54;10.40;91.40
65046;DHT22;54657;52.022;5.534;2022-12-29T10:48:24;10.30;91.00
65046;DHT22;54657;52.022;5.534;2022-12-29T10:50:51;10.40;91.00
65046;DHT22;54657;52.022;5.534;2022-12-29T10:53:23;10.40;91.00
65046;DHT22;54657;52.022;5.534;2022-12-29T10:55:50;10.30;91.10
65046;DHT22;54657;52.022;5.534;2022-12-29T10:58:17;10.30;91.10
65046;DHT22;54657;52.022;5.534;2022-12-29T11:01:16;10.40;91.10
65046;DHT22;54657;52.022;5.534;2022-12-29T11:06:34;10.50;91.10
65046;DHT22;54657;52.022;5.534;2022-12-29T11:09:08;10.50;91.00
65046;DHT22;54657;52.022;5.534;2022-12-29T11:11:39;10.50;91.10
65046;DHT22;54657;52.022;5.534;2022-12-29T11:14:14;10.50;91.00
65046;DHT22;54657;52.022;5.534;2022-12-29T11:16:40;10.50;91.20
65046;DHT22;54657;52.022;5.534;2022-12-29T11:19:23;10.60;90.90
65046;DHT22;54657;52.022;5.534;2022-12-29T11:21:52;10.60;91.30
65046;DHT22;54657;52.022;5.534;2022-12-29T11:24:23;10.70;90.80
65046;DHT22;54657;52.022;5.534;2022-12-29T11:26:51;10.70;90.80
65046;DHT22;54657;52.022;5.534;2022-12-29T11:31:58;10.60;91.10
65046;DHT22;54657;52.022;5.534;2022-12-29T11:34:34;10.70;90.90
65046;DHT22;54657;52.022;5.534;2022-12-29T11:42:17;10.60;91.00
65046;DHT22;54657;52.022;5.534;2022-12-29T11:44:48;10.60;91.00
65046;DHT22;54657;52.022;5.534;2022-12-29T11:47:31;10.60;91.10
65046;DHT22;54657;52.022;5.534;2022-12-29T11:50:03;10.60;91.30
65046;DHT22;54657;52.022;5.534;2022-12-29T11:52:33;10.60;91.20
65046;DHT22;54657;52.022;5.534;2022-12-29T11:55:03;10.60;91.20
65046;DHT22;54657;52.022;5.534;2022-12-29T11:57:33;10.60;91.10
65046;DHT22;54657;52.022;5.534;2022-12-29T12:00:03;10.50;90.60
65046;DHT22;54657;52.022;5.534;2022-12-29T12:05:24;10.40;90.90
65046;DHT22;54657;52.022;5.534;2022-12-29T12:10:32;10.30;90.90
65046;DHT22;54657;52.022;5.534;2022-12-29T12:13:06;10.40;91.00
65046;DHT22;54657;52.022;5.534;2022-12-29T12:15:36;10.40;90.90
65046;DHT22;54657;52.022;5.534;2022-12-29T12:18:23;10.40;90.90
65046;DHT22;54657;52.022;5.534;2022-12-29T12:26:35;10.50;91.20
65046;DHT22;54657;52.022;5.534;2022-12-29T12:32:12;10.60;91.00
65046;DHT22;54657;52.022;5.534;2022-12-29T12:34:41;10.70;91.00
65046;DHT22;54657;52.022;5.534;2022-12-29T12:37:52;10.70;91.00
65046;DHT22;54657;52.022;5.534;2022-12-29T12:40:42;10.70;90.90
65046;DHT22;54657;52.022;5.534;2022-12-29T12:46:12;10.80;90.80
65046;DHT22;54657;52.022;5.534;2022-12-29T12:49:47;10.80;90.90
65046;DHT22;54657;52.022;5.534;2022-12-29T13:00:19;10.90;90.60
65046;DHT22;54657;52.022;5.534;2022-12-29T13:03:10;10.90;90.60
65046;DHT22;54657;52.022;5.534;2022-12-29T13:08:47;10.90;90.40
65046;DHT22;54657;52.022;5.534;2022-12-29T13:16:54;10.90;90.30
65046;DHT22;54657;52.022;5.534;2022-12-29T13:19:30;10.90;90.30
65046;DHT22;54657;52.022;5.534;2022-12-29T13:25:02;10.90;90.30
65046;DHT22;54657;52.022;5.534;2022-12-29T13:28:28;11.00;90.00
65046;DHT22;54657;52.022;5.534;2022-12-29T13:30:39;11.00;90.10
65046;DHT22;54657;52.022;5.534;2022-12-29T13:33:30;11.00;90.00
65046;DHT22;54657;52.022;5.534;2022-12-29T13:36:13;11.00;89.50
65046;DHT22;54657;52.022;5.534;2022-12-29T13:38:47;11.00;89.50
65046;DHT22;54657;52.022;5.534;2022-12-29T13:41:35;11.00;89.20
65046;DHT22;54657;52.022;5.534;2022-12-29T13:44:04;11.00;89.20
65046;DHT22;54657;52.022;5.534;2022-12-29T13:46:49;11.00;89.70
65046;DHT22;54657;52.022;5.534;2022-12-29T13:49:21;11.00;88.90
65046;DHT22;54657;52.022;5.534;2022-12-29T13:51:54;11.10;89.00
65046;DHT22;54657;52.022;5.534;2022-12-29T14:00:21;11.00;87.90
65046;DHT22;54657;52.022;5.534;2022-12-29T14:05:34;11.00;89.40
65046;DHT22;54657;52.022;5.534;2022-12-29T14:08:02;10.90;89.50
65046;DHT22;54657;52.022;5.534;2022-12-29T14:10:47;10.90;89.40
65046;DHT22;54657;52.022;5.534;2022-12-29T14:13:19;10.90;87.30
65046;DHT22;54657;52.022;5.534;2022-12-29T14:15:54;10.90;89.10
65046;DHT22;54657;52.022;5.534;2022-12-29T14:18:25;10.80;88.60
65046;DHT22;54657;52.022;5.534;2022-12-29T14:20:54;10.80;88.60
65046;DHT22;54657;52.022;5.534;2022-12-29T14:23:42;10.80;88.80
65046;DHT22;54657;52.022;5.534;2022-12-29T14:26:44;10.80;88.40
65046;DHT22;54657;52.022;5.534;2022-12-29T14:31:55;10.80;88.60
65046;DHT22;54657;52.022;5.534;2022-12-29T14:39:41;10.50;89.90
65046;DHT22;54657;52.022;5.534;2022-12-29T14:45:06;10.50;90.20
65046;DHT22;54657;52.022;5.534;2022-12-29T14:47:47;10.50;89.80
65046;DHT22;54657;52.022;5.534;2022-12-29T14:50:42;10.50;90.20
65046;DHT22;54657;52.022;5.534;2022-12-29T14:56:13;10.40;90.40
65046;DHT22;54657;52.022;5.534;2022-12-29T14:58:59;10.40;90.40
65046;DHT22;54657;52.022;5.534;2022-12-29T15:01:39;10.40;90.20
65046;DHT22;54657;52.022;5.534;2022-12-29T15:04:32;10.40;90.30
65046;DHT22;54657;52.022;5.534;2022-12-29T15:06:59;10.40;90.10
65046;DHT22;54657;52.022;5.534;2022-12-29T15:09:45;10.40;90.40
65046;DHT22;54657;52.022;5.534;2022-12-29T15:12:43;10.40;90.30
65046;DHT22;54657;52.022;5.534;2022-12-29T15:15:27;10.40;90.20
65046;DHT22;54657;52.022;5.534;2022-12-29T15:17:55;10.40;90.30
65046;DHT22;54657;52.022;5.534;2022-12-29T15:20:29;10.40;90.20
65046;DHT22;54657;52.022;5.534;2022-12-29T15:23:02;10.40;90.20
65046;DHT22;54657;52.022;5.534;2022-12-29T15:25:30;10.40;90.20
65046;DHT22;54657;52.022;5.534;2022-12-29T15:28:03;10.40;90.20
65046;DHT22;54657;52.022;5.534;2022-12-29T15:30:29;10.40;90.10
65046;DHT22;54657;52.022;5.534;2022-12-29T15:32:55;10.40;90.20
65046;DHT22;54657;52.022;5.534;2022-12-29T15:35:33;10.40;90.20
65046;DHT22;54657;52.022;5.534;2022-12-29T15:38:00;10.40;90.20
65046;DHT22;54657;52.022;5.534;2022-12-29T15:40:37;10.40;90.20
65046;DHT22;54657;52.022;5.534;2022-12-29T15:43:24;10.40;90.20
65046;DHT22;54657;52.022;5.534;2022-12-29T15:45:54;10.40;90.00
65046;DHT22;54657;52.022;5.534;2022-12-29T15:48:22;10.40;90.20
65046;DHT22;54657;52.022;5.534;2022-12-29T15:50:49;10.40;90.10
65046;DHT22;54657;52.022;5.534;2022-12-29T15:53:22;10.40;89.80
65046;DHT22;54657;52.022;5.534;2022-12-29T15:55:51;10.40;89.80
65046;DHT22;54657;52.022;5.534;2022-12-29T15:58:25;10.40;90.00
65046;DHT22;54657;52.022;5.534;2022-12-29T16:01:00;10.40;89.40
65046;DHT22;54657;52.022;5.534;2022-12-29T16:03:29;10.40;89.50
65046;DHT22;54657;52.022;5.534;2022-12-29T16:09:02;10.40;88.90
65046;DHT22;54657;52.022;5.534;2022-12-29T16:11:38;10.40;89.00
65046;DHT22;54657;52.022;5.534;2022-12-29T16:14:40;10.40;89.20
65046;DHT22;54657;52.022;5.534;2022-12-29T16:17:15;10.40;87.80
65046;DHT22;54657;52.022;5.534;2022-12-29T16:19:43;10.40;88.80
65046;DHT22;54657;52.022;5.534;2022-12-29T16:24:47;10.40;88.30
65046;DHT22;54657;52.022;5.534;2022-12-29T16:27:36;10.40;88.40
65046;DHT22;54657;52.022;5.534;2022-12-29T16:30:06;10.40;88.10
65046;DHT22;54657;52.022;5.534;2022-12-29T16:32:32;10.40;88.20
65046;DHT22;54657;52.022;5.534;2022-12-29T16:35:52;10.40;88.40
65046;DHT22;54657;52.022;5.534;2022-12-29T16:38:20;10.40;87.40
65046;DHT22;54657;52.022;5.534;2022-12-29T16:40:58;10.30;88.00
65046;DHT22;54657;52.022;5.534;2022-12-29T16:43:32;10.30;87.40
65046;DHT22;54657;52.022;5.534;2022-12-29T16:48:30;10.20;87.00
65046;DHT22;54657;52.022;5.534;2022-12-29T16:51:01;10.20;87.30
65046;DHT22;54657;52.022;5.534;2022-12-29T16:53:34;10.10;84.30
65046;DHT22;54657;52.022;5.534;2022-12-29T16:56:07;10.10;87.30
65046;DHT22;54657;52.022;5.534;2022-12-29T16:58:34;10.10;87.40
65046;DHT22;54657;52.022;5.534;2022-12-29T17:01:03;10.10;87.40
65046;DHT22;54657;52.022;5.534;2022-12-29T17:03:38;10.00;86.50
65046;DHT22;54657;52.022;5.534;2022-12-29T17:06:05;10.00;86.10
65046;DHT22;54657;52.022;5.534;2022-12-29T17:08:40;9.90;87.00
65046;DHT22;54657;52.022;5.534;2022-12-29T17:11:24;10.00;86.90
65046;DHT22;54657;52.022;5.534;2022-12-29T17:14:25;9.90;86.40
65046;DHT22;54657;52.022;5.534;2022-12-29T17:16:52;9.90;86.70
65046;DHT22;54657;52.022;5.534;2022-12-29T17:19:21;9.90;86.90
65046;DHT22;54657;52.022;5.534;2022-12-29T17:21:49;9.80;86.80
65046;DHT22;54657;52.022;5.534;2022-12-29T17:24:19;9.80;86.80
65046;DHT22;54657;52.022;5.534;2022-12-29T17:26:50;9.80;86.80
65046;DHT22;54657;52.022;5.534;2022-12-29T17:29:37;9.80;86.10
65046;DHT22;54657;52.022;5.534;2022-12-29T17:32:05;9.80;85.70
65046;DHT22;54657;52.022;5.534;2022-12-29T17:34:32;9.80;87.00
65046;DHT22;54657;52.022;5.534;2022-12-29T17:36:58;9.80;86.80
65046;DHT22;54657;52.022;5.534;2022-12-29T17:39:23;9.80;86.80
65046;DHT22;54657;52.022;5.534;2022-12-29T17:41:49;9.80;86.40
65046;DHT22;54657;52.022;5.534;2022-12-29T17:44:19;9.80;86.60
65046;DHT22;54657;52.022;5.534;2022-12-29T17:46:46;9.80;86.60
65046;DHT22;54657;52.022;5.534;2022-12-29T17:49:14;9.80;86.40
65046;DHT22;54657;52.022;5.534;2022-12-29T17:51:45;9.80;86.40
65046;DHT22;54657;52.022;5.534;2022-12-29T17:54:19;9.80;86.10
65046;DHT22;54657;52.022;5.534;2022-12-29T17:56:46;9.70;86.00
65046;DHT22;54657;52.022;5.534;2022-12-29T17:59:11;9.70;86.30
65046;DHT22;54657;52.022;5.534;2022-12-29T18:01:41;9.70;86.30
65046;DHT22;54657;52.022;5.534;2022-12-29T18:04:11;9.60;86.30
65046;DHT22;54657;52.022;5.534;2022-12-29T18:06:38;9.60;86.10
65046;DHT22;54657;52.022;5.534;2022-12-29T18:09:03;9.50;85.80
65046;DHT22;54657;52.022;5.534;2022-12-29T18:11:33;9.60;86.30
65046;DHT22;54657;52.022;5.534;2022-12-29T18:13:58;9.50;85.60